Time;durP1;ratioP1;P1;durP2;ratioP2;P2;SDS_P1;SDS_P2;PMS_P1;PMS_P2;Temp;Humidity;BMP_temperature;BMP_pressure;BME280_temperature;BME280_humidity;BME280_pressure;Samples;Min_cycle;Max_cycle;Signal;HPM_P1;HPM_P2
2023/01/14 00:00:05;;;;;;;1.25;0.70;;;;;;;;;;5117712;28;20027;-55
2023/01/14 00:02:33;;;;;;;2.40;0.88;;;;;;;;;;5117186;28;20043;-55
2023/01/14 00:04:59;;;;;;;4.70;1.05;;;;;;;;;;5117352;28;20030;-56
2023/01/14 00:07:25;;;;;;;2.95;1.30;;;;;;;;;;5117085;28;20436;-55
2023/01/14 00:09:51;;;;;;;8.65;1.42;;;;;;;;;;5117018;28;20365;-56
2023/01/14 00:12:19;;;;;;;1.23;0.70;;;;;;;;;;5116949;28;20361;-54
2023/01/14 00:14:45;;;;;;;2.10;0.77;;;;;;;;;;5117309;28;20354;-55
2023/01/14 00:17:11;;;;;;;5.45;1.33;;;;;;;;;;5117163;28;20480;-54
2023/01/14 00:19:38;;;;;;;3.20;0.85;;;;;;;;;;5116831;28;20023;-56
2023/01/14 00:22:04;;;;;;;1.40;0.85;;;;;;;;;;5116458;28;20020;-54
2023/01/14 00:24:30;;;;;;;1.08;0.77;;;;;;;;;;5116098;28;20015;-52
2023/01/14 00:26:57;;;;;;;1.27;0.77;;;;;;;;;;5117052;28;20036;-57
2023/01/14 00:29:27;;;;;;;7.30;1.17;;;;;;;;;;5116576;28;20023;-56
2023/01/14 00:31:54;;;;;;;4.00;1.15;;;;;;;;;;5116900;28;20028;-57
2023/01/14 00:34:20;;;;;;;1.00;0.45;;;;;;;;;;5117419;28;20058;-56
2023/01/14 00:36:46;;;;;;;1.52;0.98;;;;;;;;;;5116779;28;20342;-56
2023/01/14 00:39:13;;;;;;;1.58;0.82;;;;;;;;;;5116445;28;20031;-54
2023/01/14 00:41:39;;;;;;;1.65;0.77;;;;;;;;;;5116670;28;20492;-56
2023/01/14 00:44:05;;;;;;;1.45;0.50;;;;;;;;;;5116321;28;20054;-54
2023/01/14 00:46:32;;;;;;;4.38;0.93;;;;;;;;;;5115908;28;20032;-54
2023/01/14 00:48:59;;;;;;;1.73;1.05;;;;;;;;;;5116127;28;20035;-55
2023/01/14 00:51:26;;;;;;;2.35;1.00;;;;;;;;;;5115806;28;20023;-56
2023/01/14 00:53:52;;;;;;;7.38;1.10;;;;;;;;;;5116621;28;20031;-57
2023/01/14 00:56:20;;;;;;;0.95;0.55;;;;;;;;;;5115999;28;20027;-53
2023/01/14 00:58:46;;;;;;;5.82;1.02;;;;;;;;;;5115483;28;20416;-56
2023/01/14 01:01:12;;;;;;;4.53;1.05;;;;;;;;;;5116461;28;20347;-53
2023/01/14 01:03:42;;;;;;;2.08;0.68;;;;;;;;;;5115794;28;20054;-56
2023/01/14 01:06:08;;;;;;;1.45;0.75;;;;;;;;;;5115978;28;20304;-54
2023/01/14 01:08:35;;;;;;;1.63;1.33;;;;;;;;;;5115830;28;20019;-52
2023/01/14 01:11:01;;;;;;;1.10;0.68;;;;;;;;;;5115613;28;20402;-52
2023/01/14 01:13:27;;;;;;;3.13;1.20;;;;;;;;;;5115911;28;20070;-52
2023/01/14 01:15:54;;;;;;;4.70;1.15;;;;;;;;;;5115990;28;20080;-57
2023/01/14 01:18:20;;;;;;;5.78;1.15;;;;;;;;;;5115630;28;20047;-55
2023/01/14 01:20:46;;;;;;;1.17;0.70;;;;;;;;;;5115869;28;20031;-56
2023/01/14 01:23:13;;;;;;;2.63;1.08;;;;;;;;;;5116091;28;20505;-53
2023/01/14 01:25:39;;;;;;;3.47;0.95;;;;;;;;;;5115996;28;20362;-56
2023/01/14 01:28:05;;;;;;;10.50;1.10;;;;;;;;;;5115749;28;20028;-56
2023/01/14 01:30:31;;;;;;;2.25;0.50;;;;;;;;;;5115369;28;20019;-56
2023/01/14 01:32:57;;;;;;;3.53;1.05;;;;;;;;;;5115373;28;20028;-55
2023/01/14 01:35:23;;;;;;;1.83;1.02;;;;;;;;;;5115387;28;20028;-56
2023/01/14 01:37:49;;;;;;;1.08;0.63;;;;;;;;;;5115138;28;20063;-55
2023/01/14 01:40:16;;;;;;;3.58;0.90;;;;;;;;;;5115708;28;20023;-57
2023/01/14 01:42:57;;;;;;;0.65;0.47;;;;;;;;;;5115443;28;20032;-55
2023/01/14 01:45:42;;;;;;;1.13;0.60;;;;;;;;;;5115113;28;20055;-55
2023/01/14 01:48:11;;;;;;;1.13;0.60;;;;;;;;;;5115660;28;20024;-55
2023/01/14 01:50:37;;;;;;;1.63;0.70;;;;;;;;;;5115071;28;20023;-56
2023/01/14 01:53:04;;;;;;;0.52;0.35;;;;;;;;;;5115786;28;20407;-54
2023/01/14 01:55:31;;;;;;;2.65;0.90;;;;;;;;;;5115306;28;20093;-54
2023/01/14 01:57:57;;;;;;;1.35;0.95;;;;;;;;;;5114933;28;20028;-56
2023/01/14 02:00:25;;;;;;;0.90;0.57;;;;;;;;;;5114879;28;20369;-55
2023/01/14 02:03:02;;;;;;;2.17;1.75;;;;;;;;;;5115153;28;20047;-55
2023/01/14 02:05:28;;;;;;;6.70;1.10;;;;;;;;;;5115303;28;20385;-55
2023/01/14 02:07:54;;;;;;;1.42;0.80;;;;;;;;;;5114722;28;20028;-55
2023/01/14 02:10:22;;;;;;;5.13;1.77;;;;;;;;;;5114659;28;20058;-54
2023/01/14 02:13:24;;;;;;;3.70;0.80;;;;;;;;;;5115082;28;20503;-56
2023/01/14 02:15:56;;;;;;;2.30;1.67;;;;;;;;;;5011988;28;20480;-55
2023/01/14 02:18:30;;;;;;;1.70;1.02;;;;;;;;;;5097982;28;20078;-55
2023/01/14 02:21:04;;;;;;;1.75;1.02;;;;;;;;;;5115175;28;20024;-52
2023/01/14 02:23:30;;;;;;;2.00;0.88;;;;;;;;;;5114843;28;20023;-55
2023/01/14 02:26:08;;;;;;;4.50;0.98;;;;;;;;;;5114498;28;20035;-56
2023/01/14 02:28:41;;;;;;;4.88;0.85;;;;;;;;;;5114711;28;20027;-56
2023/01/14 02:31:25;;;;;;;2.08;0.90;;;;;;;;;;5114352;28;20107;-52
2023/01/14 02:34:06;;;;;;;10.20;2.22;;;;;;;;;;5114793;28;20055;-56
2023/01/14 02:36:37;;;;;;;2.03;0.85;;;;;;;;;;5114949;28;20019;-54
2023/01/14 02:39:07;;;;;;;0.55;0.40;;;;;;;;;;5114701;28;20458;-56
2023/01/14 02:44:27;;;;;;;7.03;1.95;;;;;;;;;;5114107;28;20031;-53
2023/01/14 02:46:55;;;;;;;0.60;0.30;;;;;;;;;;5114200;28;20354;-54
2023/01/14 02:49:23;;;;;;;5.45;1.02;;;;;;;;;;5114502;28;20068;-55
2023/01/14 02:51:49;;;;;;;3.67;0.55;;;;;;;;;;5114997;28;20348;-54
2023/01/14 02:54:19;;;;;;;2.00;0.77;;;;;;;;;;5114395;28;20028;-57
2023/01/14 02:56:48;;;;;;;1.15;0.70;;;;;;;;;;5114398;28;20465;-56
2023/01/14 02:59:21;;;;;;;0.32;0.25;;;;;;;;;;5113791;28;20386;-55
2023/01/14 03:02:04;;;;;;;2.55;0.98;;;;;;;;;;5114098;28;20485;-55
2023/01/14 03:04:38;;;;;;;3.30;1.15;;;;;;;;;;5114541;28;20023;-52
2023/01/14 03:07:06;;;;;;;1.30;0.80;;;;;;;;;;5114025;28;20063;-54
2023/01/14 03:09:40;;;;;;;1.27;0.52;;;;;;;;;;5113678;28;20032;-55
2023/01/14 03:12:12;;;;;;;0.75;0.43;;;;;;;;;;5114352;28;20106;-56
2023/01/14 03:14:47;;;;;;;2.58;1.15;;;;;;;;;;5114331;28;20065;-56
2023/01/14 03:17:16;;;;;;;2.75;1.15;;;;;;;;;;5114296;28;20028;-56
2023/01/14 03:19:44;;;;;;;6.40;0.93;;;;;;;;;;5113860;28;20051;-56
2023/01/14 03:22:10;;;;;;;1.05;0.60;;;;;;;;;;5114310;28;20042;-55
2023/01/14 03:24:37;;;;;;;4.32;0.88;;;;;;;;;;5114165;28;20051;-56
2023/01/14 03:27:06;;;;;;;3.90;0.80;;;;;;;;;;5113822;28;20031;-54
2023/01/14 03:29:37;;;;;;;1.60;0.60;;;;;;;;;;5113831;28;20028;-55
2023/01/14 03:32:07;;;;;;;0.70;0.40;;;;;;;;;;5113843;28;20549;-55
2023/01/14 03:34:36;;;;;;;1.87;0.50;;;;;;;;;;5114249;28;20047;-51
2023/01/14 03:37:05;;;;;;;3.03;1.13;;;;;;;;;;5113638;28;20449;-53
2023/01/14 03:39:32;;;;;;;0.30;0.20;;;;;;;;;;5114105;28;20031;-56
2023/01/14 03:42:18;;;;;;;1.88;0.52;;;;;;;;;;5113769;28;20035;-55
2023/01/14 03:44:53;;;;;;;2.33;0.65;;;;;;;;;;5113944;28;20364;-55
2023/01/14 03:47:21;;;;;;;3.15;0.70;;;;;;;;;;5113494;28;20024;-56
2023/01/14 03:49:47;;;;;;;2.05;0.40;;;;;;;;;;5113278;28;20020;-55
2023/01/14 03:52:16;;;;;;;1.20;0.60;;;;;;;;;;5113400;28;20072;-56
2023/01/14 03:54:48;;;;;;;7.40;1.73;;;;;;;;;;5113959;28;20058;-55
2023/01/14 03:57:17;;;;;;;3.85;0.68;;;;;;;;;;5113310;28;20028;-54
2023/01/14 04:00:03;;;;;;;2.67;1.00;;;;;;;;;;5115605;28;20047;-56
2023/01/14 04:02:30;;;;;;;1.13;0.43;;;;;;;;;;5116979;28;20047;-56
2023/01/14 04:04:56;;;;;;;1.60;0.63;;;;;;;;;;5117399;28;20084;-54
2023/01/14 04:07:23;;;;;;;3.42;0.63;;;;;;;;;;5116818;28;20031;-56
2023/01/14 04:09:49;;;;;;;2.67;0.70;;;;;;;;;;5116234;28;20461;-56
2023/01/14 04:12:15;;;;;;;1.35;0.38;;;;;;;;;;5116973;28;20106;-54
2023/01/14 04:17:25;;;;;;;4.45;0.57;;;;;;;;;;5117205;28;20034;-56
2023/01/14 04:19:51;;;;;;;0.98;0.47;;;;;;;;;;5116845;28;20027;-55
2023/01/14 04:22:17;;;;;;;3.83;0.60;;;;;;;;;;5116756;28;20107;-56
2023/01/14 04:24:43;;;;;;;1.40;0.45;;;;;;;;;;5117082;28;20028;-55
2023/01/14 04:27:09;;;;;;;4.05;1.00;;;;;;;;;;5116617;28;20098;-57
2023/01/14 04:29:35;;;;;;;1.25;0.47;;;;;;;;;;5116707;28;20034;-56
2023/01/14 04:32:01;;;;;;;1.40;0.57;;;;;;;;;;5116657;28;20023;-54
2023/01/14 04:34:27;;;;;;;0.13;0.10;;;;;;;;;;5117223;28;20065;-56
2023/01/14 04:36:53;;;;;;;3.83;0.38;;;;;;;;;;5116292;28;20034;-56
2023/01/14 04:39:19;;;;;;;1.02;0.43;;;;;;;;;;5117110;28;20027;-58
2023/01/14 04:44:31;;;;;;;1.83;0.50;;;;;;;;;;5116542;28;20030;-56
2023/01/14 04:46:57;;;;;;;0.70;0.50;;;;;;;;;;5116292;28;20110;-57
2023/01/14 04:49:22;;;;;;;5.95;1.25;;;;;;;;;;5116375;28;20051;-54
2023/01/14 04:51:48;;;;;;;0.73;0.35;;;;;;;;;;5116595;28;20020;-56
2023/01/14 04:54:14;;;;;;;2.40;0.93;;;;;;;;;;5117176;28;20020;-53
2023/01/14 04:56:40;;;;;;;5.78;1.30;;;;;;;;;;5116533;28;20028;-56
2023/01/14 04:59:06;;;;;;;1.13;0.50;;;;;;;;;;5116469;28;20019;-55
2023/01/14 05:01:32;;;;;;;7.90;1.38;;;;;;;;;;5115979;28;20051;-57
2023/01/14 05:03:58;;;;;;;5.20;0.77;;;;;;;;;;5116351;28;20106;-57
2023/01/14 05:06:28;;;;;;;1.15;0.32;;;;;;;;;;5116299;28;20041;-56
2023/01/14 05:08:54;;;;;;;3.53;0.75;;;;;;;;;;5116018;28;20035;-56
2023/01/14 05:11:20;;;;;;;1.20;0.70;;;;;;;;;;5114399;28;20024;-54
2023/01/14 05:13:46;;;;;;;1.20;0.60;;;;;;;;;;5115892;28;20365;-54
2023/01/14 05:16:12;;;;;;;2.15;0.85;;;;;;;;;;5116169;28;20028;-54
2023/01/14 05:18:38;;;;;;;5.00;0.80;;;;;;;;;;5115655;28;20423;-54
2023/01/14 05:21:05;;;;;;;1.52;0.82;;;;;;;;;;5115768;28;20023;-56
2023/01/14 05:23:31;;;;;;;1.77;0.80;;;;;;;;;;5115659;28;20051;-56
2023/01/14 05:25:57;;;;;;;2.95;1.02;;;;;;;;;;5115537;28;20059;-55
2023/01/14 05:28:23;;;;;;;2.45;1.30;;;;;;;;;;5115597;28;20020;-54
2023/01/14 05:30:48;;;;;;;1.10;0.75;;;;;;;;;;5116106;28;20019;-53
2023/01/14 05:33:14;;;;;;;3.00;1.08;;;;;;;;;;5115496;28;20361;-56
2023/01/14 05:35:40;;;;;;;0.30;0.13;;;;;;;;;;5116380;28;20326;-56
2023/01/14 05:38:08;;;;;;;1.17;0.82;;;;;;;;;;5115346;28;20023;-55
2023/01/14 05:40:34;;;;;;;2.20;0.77;;;;;;;;;;5115283;28;20020;-56
2023/01/14 05:45:48;;;;;;;0.93;0.38;;;;;;;;;;5115574;28;20035;-56
2023/01/14 05:48:15;;;;;;;0.25;0.20;;;;;;;;;;5115461;28;20475;-54
2023/01/14 05:50:41;;;;;;;0.10;0.10;;;;;;;;;;5115906;28;20019;-56
2023/01/14 05:53:07;;;;;;;2.50;0.60;;;;;;;;;;5114764;28;20020;-55
2023/01/14 05:55:34;;;;;;;4.32;0.52;;;;;;;;;;5115117;28;20020;-57
2023/01/14 05:58:01;;;;;;;4.22;0.98;;;;;;;;;;5115285;28;20024;-54
2023/01/14 06:08:42;;;;;;;1.25;0.68;;;;;;;;;;5114699;28;20027;-57
2023/01/14 06:11:08;;;;;;;3.35;0.60;;;;;;;;;;5114966;28;20015;-56
2023/01/14 06:13:35;;;;;;;3.38;1.00;;;;;;;;;;5115518;28;20416;-57
2023/01/14 06:16:02;;;;;;;1.08;0.60;;;;;;;;;;5115304;28;20030;-56
2023/01/14 06:18:37;;;;;;;2.20;0.55;;;;;;;;;;5114619;28;20058;-53
2023/01/14 06:21:03;;;;;;;0.57;0.43;;;;;;;;;;5114593;28;20027;-55
2023/01/14 06:23:29;;;;;;;1.05;0.57;;;;;;;;;;5114384;28;20028;-56
2023/01/14 06:25:55;;;;;;;3.67;0.90;;;;;;;;;;5114853;28;20047;-52
2023/01/14 06:28:21;;;;;;;1.65;1.55;;;;;;;;;;5114535;28;20423;-54
2023/01/14 06:30:48;;;;;;;2.60;0.90;;;;;;;;;;5115052;28;20457;-53
2023/01/14 06:33:14;;;;;;;3.65;0.88;;;;;;;;;;5115322;28;20089;-53
2023/01/14 06:35:41;;;;;;;2.42;1.38;;;;;;;;;;5114514;28;20031;-55
2023/01/14 06:38:07;;;;;;;2.80;0.93;;;;;;;;;;5114306;28;20032;-54
2023/01/14 06:40:33;;;;;;;2.35;0.52;;;;;;;;;;5114359;28;20030;-56
2023/01/14 06:42:59;;;;;;;6.65;1.38;;;;;;;;;;5114556;28;20030;-55
2023/01/14 06:45:25;;;;;;;2.55;0.80;;;;;;;;;;5113259;28;20111;-53
2023/01/14 06:47:51;;;;;;;3.47;0.57;;;;;;;;;;5114276;28;20069;-54
2023/01/14 06:50:18;;;;;;;1.95;0.70;;;;;;;;;;5114470;28;20069;-54
2023/01/14 06:52:44;;;;;;;2.15;1.23;;;;;;;;;;5114759;28;20023;-52
2023/01/14 06:55:10;;;;;;;3.80;0.95;;;;;;;;;;5114554;28;20023;-51
2023/01/14 06:57:36;;;;;;;2.25;0.68;;;;;;;;;;5114189;28;20058;-56
2023/01/14 07:00:02;;;;;;;4.70;1.02;;;;;;;;;;5114100;28;20027;-57
2023/01/14 07:02:28;;;;;;;2.63;1.08;;;;;;;;;;5114141;28;20095;-55
2023/01/14 07:04:54;;;;;;;1.73;0.68;;;;;;;;;;5114049;28;20415;-53
2023/01/14 07:07:20;;;;;;;2.45;0.70;;;;;;;;;;5113615;28;20035;-55
2023/01/14 07:09:46;;;;;;;3.20;1.40;;;;;;;;;;5114724;28;20019;-54
2023/01/14 07:12:12;;;;;;;1.23;0.73;;;;;;;;;;5113655;28;20162;-56
2023/01/14 07:14:39;;;;;;;11.68;0.85;;;;;;;;;;5114344;28;20135;-55
2023/01/14 07:17:05;;;;;;;1.10;0.50;;;;;;;;;;5114002;28;20513;-56
2023/01/14 07:19:31;;;;;;;2.80;1.27;;;;;;;;;;5114713;28;20028;-55
2023/01/14 07:21:57;;;;;;;2.53;1.13;;;;;;;;;;5113701;28;20483;-56
2023/01/14 07:24:23;;;;;;;4.18;1.05;;;;;;;;;;5114597;28;20028;-56
2023/01/14 07:26:49;;;;;;;3.67;1.10;;;;;;;;;;5113852;28;20081;-56
2023/01/14 07:29:15;;;;;;;3.75;0.82;;;;;;;;;;5113889;28;20024;-57
2023/01/14 07:31:41;;;;;;;2.72;0.85;;;;;;;;;;5113591;28;20059;-54
2023/01/14 07:34:07;;;;;;;5.53;1.02;;;;;;;;;;5115599;28;20024;-53
2023/01/14 07:36:33;;;;;;;2.70;2.10;;;;;;;;;;5118016;28;20546;-53
2023/01/14 07:38:59;;;;;;;2.35;1.52;;;;;;;;;;5117654;28;20128;-58
2023/01/14 07:41:25;;;;;;;1.65;0.65;;;;;;;;;;5118043;28;20027;-54
2023/01/14 07:43:51;;;;;;;3.22;1.85;;;;;;;;;;5117405;28;20032;-55
2023/01/14 07:46:17;;;;;;;2.05;1.00;;;;;;;;;;5117379;28;20207;-56
2023/01/14 07:48:44;;;;;;;2.42;1.05;;;;;;;;;;5117009;28;20407;-53
2023/01/14 07:51:10;;;;;;;9.13;1.30;;;;;;;;;;5117382;28;20471;-52
2023/01/14 07:53:36;;;;;;;4.47;1.48;;;;;;;;;;5117210;28;20469;-55
2023/01/14 07:56:03;;;;;;;1.35;0.80;;;;;;;;;;5117948;28;20032;-56
2023/01/14 07:58:29;;;;;;;4.28;1.17;;;;;;;;;;5117029;28;20461;-57
2023/01/14 08:00:55;;;;;;;3.80;0.93;;;;;;;;;;5117782;28;20059;-56
2023/01/14 08:03:22;;;;;;;2.92;1.30;;;;;;;;;;5117158;28;20397;-51
2023/01/14 08:05:48;;;;;;;5.97;1.92;;;;;;;;;;5116835;28;20538;-54
2023/01/14 08:08:14;;;;;;;5.68;1.08;;;;;;;;;;5117231;28;20019;-55
2023/01/14 08:10:40;;;;;;;2.83;1.00;;;;;;;;;;5117210;28;20370;-55
2023/01/14 08:13:06;;;;;;;2.65;0.82;;;;;;;;;;5117418;28;20020;-56
2023/01/14 08:15:32;;;;;;;4.43;1.75;;;;;;;;;;5116989;28;20027;-55
2023/01/14 08:17:59;;;;;;;2.78;1.13;;;;;;;;;;5116949;28;20496;-56
2023/01/14 08:20:26;;;;;;;6.40;1.40;;;;;;;;;;5117363;28;20106;-52
2023/01/14 08:22:57;;;;;;;1.25;0.52;;;;;;;;;;5117327;28;20108;-55
2023/01/14 08:25:23;;;;;;;1.50;0.80;;;;;;;;;;5117238;28;20032;-55
2023/01/14 08:27:49;;;;;;;3.78;0.93;;;;;;;;;;5117428;28;20456;-57
2023/01/14 08:30:15;;;;;;;6.30;1.42;;;;;;;;;;5117239;28;20029;-57
2023/01/14 08:32:41;;;;;;;2.50;1.13;;;;;;;;;;5116395;28;20028;-54
2023/01/14 08:35:07;;;;;;;3.13;1.27;;;;;;;;;;5116957;28;20043;-54
2023/01/14 08:37:33;;;;;;;3.17;0.95;;;;;;;;;;5116615;28;20027;-55
2023/01/14 08:39:59;;;;;;;2.75;1.35;;;;;;;;;;5116507;28;20367;-57
2023/01/14 08:42:25;;;;;;;7.82;1.42;;;;;;;;;;5116445;28;20046;-53
2023/01/14 08:44:51;;;;;;;4.35;1.67;;;;;;;;;;5116657;28;20053;-54
2023/01/14 08:47:17;;;;;;;3.20;1.00;;;;;;;;;;5115946;28;20032;-55
2023/01/14 08:49:43;;;;;;;1.60;0.68;;;;;;;;;;5116194;28;20115;-56
2023/01/14 08:52:09;;;;;;;2.60;1.00;;;;;;;;;;5116376;28;20095;-55
2023/01/14 08:54:35;;;;;;;1.63;0.68;;;;;;;;;;5116278;28;20027;-54
2023/01/14 08:57:01;;;;;;;4.85;1.75;;;;;;;;;;5116170;28;20072;-56
2023/01/14 08:59:27;;;;;;;5.03;0.90;;;;;;;;;;5116662;28;20418;-53
2023/01/14 09:01:53;;;;;;;2.33;0.95;;;;;;;;;;5116053;28;20039;-54
2023/01/14 09:04:19;;;;;;;1.52;0.52;;;;;;;;;;5116169;28;20118;-54
2023/01/14 09:17:44;;;;;;;5.88;0.77;;;;;;;;;;5115904;28;20065;-56
2023/01/14 09:20:14;;;;;;;3.33;2.05;;;;;;;;;;5115933;28;20023;-52
2023/01/14 09:22:40;;;;;;;7.38;1.23;;;;;;;;;;5115729;28;20019;-56
2023/01/14 09:25:07;;;;;;;2.33;1.30;;;;;;;;;;5115621;28;20103;-56
2023/01/14 09:27:33;;;;;;;1.67;0.82;;;;;;;;;;5116122;28;20449;-55
2023/01/14 09:29:59;;;;;;;6.22;1.73;;;;;;;;;;5115544;28;20059;-56
2023/01/14 09:32:25;;;;;;;4.07;1.08;;;;;;;;;;5115787;28;20246;-52
2023/01/14 09:34:54;;;;;;;3.15;0.88;;;;;;;;;;5116089;28;20356;-52
2023/01/14 09:37:21;;;;;;;4.30;0.63;;;;;;;;;;5114985;28;20024;-52
2023/01/14 09:39:48;;;;;;;5.05;1.25;;;;;;;;;;5115211;28;20027;-56
2023/01/14 09:42:16;;;;;;;11.07;1.60;;;;;;;;;;5115221;28;20020;-56
2023/01/14 09:44:43;;;;;;;2.33;1.10;;;;;;;;;;5115847;28;20019;-54
2023/01/14 09:47:12;;;;;;;2.60;0.93;;;;;;;;;;5115121;28;20027;-54
2023/01/14 09:49:38;;;;;;;4.93;1.17;;;;;;;;;;5115250;28;20070;-55
2023/01/14 09:52:12;;;;;;;4.18;1.08;;;;;;;;;;5115305;28;20022;-56
2023/01/14 09:54:57;;;;;;;1.67;0.90;;;;;;;;;;5115427;28;20051;-54
2023/01/14 09:57:31;;;;;;;2.95;1.17;;;;;;;;;;5114052;28;20147;-56
2023/01/14 10:00:02;;;;;;;1.52;0.85;;;;;;;;;;5115289;28;20023;-53
2023/01/14 10:02:35;;;;;;;1.85;1.00;;;;;;;;;;5115075;28;20047;-56
2023/01/14 10:05:15;;;;;;;2.13;0.93;;;;;;;;;;5115205;28;20027;-57
2023/01/14 10:07:42;;;;;;;1.42;1.00;;;;;;;;;;5115061;28;20027;-56
2023/01/14 10:10:16;;;;;;;2.10;1.90;;;;;;;;;;5114755;28;20031;-53
2023/01/14 10:12:44;;;;;;;4.00;0.88;;;;;;;;;;5114946;28;20031;-57
2023/01/14 10:15:20;;;;;;;3.67;1.55;;;;;;;;;;5114951;28;20069;-55
2023/01/14 10:17:52;;;;;;;7.80;1.13;;;;;;;;;;5114530;28;20103;-51
2023/01/14 10:20:22;;;;;;;3.83;1.48;;;;;;;;;;5114752;28;20024;-52
2023/01/14 10:22:57;;;;;;;4.57;1.10;;;;;;;;;;5114232;28;20019;-55
2023/01/14 10:25:23;;;;;;;5.38;1.15;;;;;;;;;;5115038;28;20019;-53
2023/01/14 10:27:56;;;;;;;4.43;1.50;;;;;;;;;;5114804;28;20032;-54
2023/01/14 10:30:24;;;;;;;3.03;1.38;;;;;;;;;;5114467;28;20024;-52
2023/01/14 10:32:51;;;;;;;2.35;1.40;;;;;;;;;;5114426;28;20397;-55
2023/01/14 10:35:19;;;;;;;3.05;1.30;;;;;;;;;;5114986;28;20022;-55
2023/01/14 10:37:45;;;;;;;2.38;1.35;;;;;;;;;;5114545;28;20377;-54
2023/01/14 10:40:22;;;;;;;2.47;1.00;;;;;;;;;;5114852;28;20035;-54
2023/01/14 10:42:48;;;;;;;1.77;1.10;;;;;;;;;;5114539;28;20024;-54
2023/01/14 10:45:14;;;;;;;4.38;2.33;;;;;;;;;;5114341;28;20400;-50
2023/01/14 10:47:40;;;;;;;1.42;0.65;;;;;;;;;;5114245;28;20073;-52
2023/01/14 10:50:21;;;;;;;1.35;0.52;;;;;;;;;;5114026;28;20034;-50
2023/01/14 10:52:47;;;;;;;3.28;0.65;;;;;;;;;;5114067;28;20019;-54
2023/01/14 10:55:13;;;;;;;2.40;1.20;;;;;;;;;;5114573;28;20362;-54
2023/01/14 10:57:45;;;;;;;1.98;1.40;;;;;;;;;;5113712;28;20028;-52
2023/01/14 11:00:28;;;;;;;2.83;0.60;;;;;;;;;;5114792;28;20043;-56
2023/01/14 11:02:55;;;;;;;2.13;0.80;;;;;;;;;;5114226;28;20524;-57
2023/01/14 11:05:30;;;;;;;3.67;1.10;;;;;;;;;;5114342;28;20026;-54
2023/01/14 11:08:02;;;;;;;4.72;1.67;;;;;;;;;;5115606;28;20032;-54
2023/01/14 11:10:29;;;;;;;5.88;1.50;;;;;;;;;;5118528;28;20107;-54
2023/01/14 11:13:14;;;;;;;6.13;1.40;;;;;;;;;;5118496;28;20097;-53
2023/01/14 11:15:41;;;;;;;4.97;1.40;;;;;;;;;;5117817;28;20453;-49
2023/01/14 11:18:27;;;;;;;3.35;1.05;;;;;;;;;;5118304;28;20059;-49
2023/01/14 11:20:55;;;;;;;3.88;1.52;;;;;;;;;;5118104;28;20111;-52
2023/01/14 11:23:26;;;;;;;4.47;0.70;;;;;;;;;;5118281;28;20030;-55
2023/01/14 11:25:52;;;;;;;1.95;0.88;;;;;;;;;;5118462;28;20032;-56
2023/01/14 11:28:18;;;;;;;4.15;1.17;;;;;;;;;;5118545;28;20046;-56
2023/01/14 11:30:45;;;;;;;2.22;1.70;;;;;;;;;;5117945;28;20034;-50
2023/01/14 11:33:21;;;;;;;1.48;0.57;;;;;;;;;;5117705;28;20027;-55
2023/01/14 11:35:51;;;;;;;1.25;0.65;;;;;;;;;;5117786;28;20054;-51
2023/01/14 11:38:21;;;;;;;3.30;0.63;;;;;;;;;;5117765;28;20024;-54
2023/01/14 11:43:34;;;;;;;1.13;0.63;;;;;;;;;;5118031;28;20054;-54
2023/01/14 11:46:04;;;;;;;1.20;0.57;;;;;;;;;;5117510;28;20063;-55
2023/01/14 11:48:30;;;;;;;1.40;0.60;;;;;;;;;;5117607;28;20456;-52
2023/01/14 11:50:59;;;;;;;2.45;1.27;;;;;;;;;;5117421;28;20103;-52
2023/01/14 11:53:26;;;;;;;1.23;0.50;;;;;;;;;;5117421;28;20028;-54
2023/01/14 11:55:55;;;;;;;1.85;0.70;;;;;;;;;;5118240;28;20032;-55
2023/01/14 11:58:25;;;;;;;3.53;1.08;;;;;;;;;;5117324;28;20027;-53
2023/01/14 12:00:50;;;;;;;4.75;0.80;;;;;;;;;;5117903;28;20020;-54
2023/01/14 12:03:52;;;;;;;2.17;0.80;;;;;;;;;;5117530;28;20050;-54
2023/01/14 12:06:20;;;;;;;2.35;1.33;;;;;;;;;;5014486;28;20034;-56
2023/01/14 12:08:50;;;;;;;1.40;0.43;;;;;;;;;;5097696;28;20039;-53
2023/01/14 12:11:36;;;;;;;1.30;0.60;;;;;;;;;;5117086;28;20024;-53
2023/01/14 12:16:52;;;;;;;0.28;0.13;;;;;;;;;;5117352;28;20039;-51
2023/01/14 12:19:18;;;;;;;4.22;0.95;;;;;;;;;;5116144;28;20239;-55
2023/01/14 12:22:15;;;;;;;4.60;0.95;;;;;;;;;;5116766;28;20038;-50
2023/01/14 12:24:41;;;;;;;1.63;0.80;;;;;;;;;;5115647;28;20089;-52
2023/01/14 12:27:15;;;;;;;2.38;0.45;;;;;;;;;;5117021;28;20454;-50
2023/01/14 12:29:43;;;;;;;2.10;0.30;;;;;;;;;;5117548;28;20031;-51
2023/01/14 12:32:21;;;;;;;1.13;0.40;;;;;;;;;;5116595;28;20424;-50
2023/01/14 12:34:50;;;;;;;1.00;0.55;;;;;;;;;;5116937;28;20081;-53
2023/01/14 12:37:19;;;;;;;0.50;0.20;;;;;;;;;;5116473;28;20031;-53
2023/01/14 12:45:46;;;;;;;3.03;0.43;;;;;;;;;;5116325;28;20442;-53
2023/01/14 12:48:12;;;;;;;1.33;0.77;;;;;;;;;;5117028;28;20024;-51
2023/01/14 12:50:43;;;;;;;2.47;0.80;;;;;;;;;;5116320;28;20114;-50
2023/01/14 12:53:09;;;;;;;;;;;;;;;;;;5117339;28;20024;-52
2023/01/14 12:55:38;;;;;;;1.98;0.88;;;;;;;;;;5116942;28;19945;-51
2023/01/14 12:58:05;;;;;;;1.08;0.50;;;;;;;;;;5116639;28;20098;-50
2023/01/14 13:00:32;;;;;;;1.45;0.43;;;;;;;;;;5116372;28;20024;-54
2023/01/14 13:03:02;;;;;;;0.88;0.45;;;;;;;;;;5116460;28;20126;-52
2023/01/14 13:05:31;;;;;;;2.05;0.52;;;;;;;;;;5116062;28;20032;-51
2023/01/14 13:08:00;;;;;;;3.55;0.52;;;;;;;;;;5116271;28;20050;-51
2023/01/14 13:10:31;;;;;;;1.85;0.70;;;;;;;;;;5115868;28;20057;-55
2023/01/14 13:12:57;;;;;;;0.80;0.50;;;;;;;;;;5116139;28;20373;-52
2023/01/14 13:15:25;;;;;;;2.25;0.88;;;;;;;;;;5116353;28;20034;-55
2023/01/14 13:17:56;;;;;;;3.28;1.00;;;;;;;;;;5115749;28;20114;-55
2023/01/14 13:20:22;;;;;;;;;;;;;;;;;;5116405;28;20016;-55
2023/01/14 13:22:50;;;;;;;3.92;1.05;;;;;;;;;;5115934;28;19969;-55
2023/01/14 13:25:19;;;;;;;1.70;1.00;;;;;;;;;;5116168;28;20366;-53
2023/01/14 13:27:46;;;;;;;2.65;1.35;;;;;;;;;;5115447;28;20182;-55
2023/01/14 13:30:18;;;;;;;3.15;1.52;;;;;;;;;;5115821;28;20063;-56
2023/01/14 13:32:59;;;;;;;2.47;1.10;;;;;;;;;;5114466;28;20063;-53
2023/01/14 13:35:27;;;;;;;2.13;0.98;;;;;;;;;;5115540;28;20038;-55
2023/01/14 13:37:53;;;;;;;4.00;1.10;;;;;;;;;;5115276;28;20058;-53
2023/01/14 13:40:32;;;;;;;2.10;1.15;;;;;;;;;;5115863;28;20076;-55
2023/01/14 13:43:06;;;;;;;2.13;0.85;;;;;;;;;;5115994;28;20314;-54
2023/01/14 13:45:34;;;;;;;2.10;1.10;;;;;;;;;;5115035;28;20035;-54
2023/01/14 13:48:10;;;;;;;1.80;0.80;;;;;;;;;;5115084;28;20031;-54
2023/01/14 13:50:37;;;;;;;1.40;0.63;;;;;;;;;;5115530;28;20019;-54
2023/01/14 13:53:19;;;;;;;7.22;3.00;;;;;;;;;;5115384;28;20051;-51
2023/01/14 13:55:53;;;;;;;9.95;5.45;;;;;;;;;;5115085;28;20126;-55
2023/01/14 13:58:25;;;;;;;5.20;2.22;;;;;;;;;;5096668;28;20472;-55
2023/01/14 14:01:09;;;;;;;2.47;1.15;;;;;;;;;;5115222;28;20034;-54
2023/01/14 14:03:45;;;;;;;2.70;1.25;;;;;;;;;;5071119;28;20403;-53
2023/01/14 14:06:20;;;;;;;2.35;1.30;;;;;;;;;;5071433;28;20071;-52
2023/01/14 14:08:51;;;;;;;2.03;0.93;;;;;;;;;;5070711;28;20117;-54
2023/01/14 14:11:18;;;;;;;1.90;0.80;;;;;;;;;;5071270;28;20446;-49
2023/01/14 14:14:04;;;;;;;5.47;1.67;;;;;;;;;;5070819;28;20051;-54
2023/01/14 14:16:33;;;;;;;1.33;0.90;;;;;;;;;;5070971;28;20035;-55
2023/01/14 14:19:02;;;;;;;1.42;1.02;;;;;;;;;;5070394;28;20064;-56
2023/01/14 14:21:57;;;;;;;3.65;1.38;;;;;;;;;;5070102;28;20020;-54
2023/01/14 14:24:27;;;;;;;3.97;1.27;;;;;;;;;;5065780;28;20387;-55
2023/01/14 14:26:54;;;;;;;5.55;1.58;;;;;;;;;;5071111;28;20020;-55
2023/01/14 14:29:20;;;;;;;4.90;1.17;;;;;;;;;;5070140;28;20441;-54
2023/01/14 14:31:46;;;;;;;2.67;1.25;;;;;;;;;;5070565;28;20033;-57
2023/01/14 14:34:20;;;;;;;1.40;0.57;;;;;;;;;;5070938;28;20028;-56
2023/01/14 14:36:50;;;;;;;0.98;0.63;;;;;;;;;;5069548;28;20024;-57
2023/01/14 14:39:26;;;;;;;1.90;1.00;;;;;;;;;;5070840;28;20021;-52
2023/01/14 14:41:52;;;;;;;2.03;0.98;;;;;;;;;;5070202;28;20447;-54
2023/01/14 14:44:22;;;;;;;1.55;0.90;;;;;;;;;;5070722;28;20083;-51
2023/01/14 14:46:48;;;;;;;1.00;0.50;;;;;;;;;;5070284;28;20029;-52
2023/01/14 14:49:27;;;;;;;3.85;1.10;;;;;;;;;;5070533;28;20496;-55
2023/01/14 14:51:54;;;;;;;1.63;0.80;;;;;;;;;;5070728;28;20101;-56
2023/01/14 14:54:32;;;;;;;1.67;0.80;;;;;;;;;;5070564;28;20064;-56
2023/01/14 14:57:02;;;;;;;2.30;0.85;;;;;;;;;;5070080;28;20028;-52
2023/01/14 14:59:30;;;;;;;0.70;0.40;;;;;;;;;;5069917;28;20136;-55
2023/01/14 15:01:57;;;;;;;0.85;0.47;;;;;;;;;;5069799;28;20059;-54
2023/01/14 15:04:24;;;;;;;1.52;0.80;;;;;;;;;;5070336;28;20029;-53
2023/01/14 15:06:52;;;;;;;1.05;0.52;;;;;;;;;;5069915;28;20066;-56
2023/01/14 15:09:19;;;;;;;0.93;0.40;;;;;;;;;;5069816;28;20122;-55
2023/01/14 15:11:46;;;;;;;0.85;0.30;;;;;;;;;;5069763;28;20036;-53
2023/01/14 15:14:25;;;;;;;0.80;0.35;;;;;;;;;;5061287;28;20029;-55
2023/01/14 15:16:51;;;;;;;2.22;0.80;;;;;;;;;;5056987;28;20457;-54
2023/01/14 15:19:17;;;;;;;0.90;0.57;;;;;;;;;;5056300;28;20102;-55
2023/01/14 15:21:44;;;;;;;0.70;0.40;;;;;;;;;;5056257;28;20428;-56
2023/01/14 15:24:17;;;;;;;3.75;0.57;;;;;;;;;;5056769;28;20029;-53
2023/01/14 15:26:44;;;;;;;2.55;0.50;;;;;;;;;;5056599;28;20108;-55
2023/01/14 15:29:21;;;;;;;0.75;0.30;;;;;;;;;;5056277;28;20035;-54
2023/01/14 15:31:47;;;;;;;1.45;0.40;;;;;;;;;;5056241;28;20065;-55
2023/01/14 15:34:16;;;;;;;1.38;0.60;;;;;;;;;;5056683;28;20102;-55